sensor_id;sensor_type;location;lat;lon;timestamp;pressure;altitude;pressure_sealevel;temperature;humidity
13705;BME280;6924;52.122;9.952;2023-09-18T00:01:34;100000.34;;;19.89;100.00
13705;BME280;6924;52.122;9.952;2023-09-18T00:04:01;99990.88;;;19.85;100.00
13705;BME280;6924;52.122;9.952;2023-09-18T00:06:28;99993.31;;;19.83;100.00
13705;BME280;6924;52.122;9.952;2023-09-18T00:08:55;99992.88;;;19.80;100.00
13705;BME280;6924;52.122;9.952;2023-09-18T00:11:21;99980.97;;;19.78;100.00
13705;BME280;6924;52.122;9.952;2023-09-18T00:13:48;99972.28;;;19.75;100.00
13705;BME280;6924;52.122;9.952;2023-09-18T00:16:14;99966.97;;;19.73;100.00
13705;BME280;6924;52.122;9.952;2023-09-18T00:18:42;99964.03;;;19.70;100.00
13705;BME280;6924;52.122;9.952;2023-09-18T00:21:09;99953.72;;;19.65;100.00
13705;BME280;6924;52.122;9.952;2023-09-18T00:23:36;99955.78;;;19.65;100.00
13705;BME280;6924;52.122;9.952;2023-09-18T00:26:03;99947.09;;;19.61;100.00
13705;BME280;6924;52.122;9.952;2023-09-18T00:28:29;99949.16;;;19.60;100.00
13705;BME280;6924;52.122;9.952;2023-09-18T00:30:56;99940.50;;;19.57;100.00
13705;BME280;6924;52.122;9.952;2023-09-18T00:33:23;99932.69;;;19.54;100.00
13705;BME280;6924;52.122;9.952;2023-09-18T00:35:51;99931.44;;;19.51;100.00
13705;BME280;6924;52.122;9.952;2023-09-18T00:38:18;99931.81;;;19.50;100.00
13705;BME280;6924;52.122;9.952;2023-09-18T00:40:45;99931.00;;;19.49;100.00
13705;BME280;6924;52.122;9.952;2023-09-18T00:43:11;99925.63;;;19.48;100.00
13705;BME280;6924;52.122;9.952;2023-09-18T00:45:40;99917.84;;;19.48;100.00
13705;BME280;6924;52.122;9.952;2023-09-18T00:48:07;99910.47;;;19.47;100.00
13705;BME280;6924;52.122;9.952;2023-09-18T00:50:34;99907.19;;;19.45;100.00
13705;BME280;6924;52.122;9.952;2023-09-18T00:53:02;99901.38;;;19.41;100.00
13705;BME280;6924;52.122;9.952;2023-09-18T00:55:30;99900.56;;;19.41;100.00
13705;BME280;6924;52.122;9.952;2023-09-18T00:57:57;99899.75;;;19.40;100.00
13705;BME280;6924;52.122;9.952;2023-09-18T01:00:24;99889.91;;;19.38;100.00
13705;BME280;6924;52.122;9.952;2023-09-18T01:02:51;99890.72;;;19.38;100.00
13705;BME280;6924;52.122;9.952;2023-09-18T01:05:17;99879.63;;;19.37;100.00
13705;BME280;6924;52.122;9.952;2023-09-18T01:07:45;99880.00;;;19.35;100.00
13705;BME280;6924;52.122;9.952;2023-09-18T01:10:13;99872.63;;;19.34;100.00
13705;BME280;6924;52.122;9.952;2023-09-18T01:12:45;99869.78;;;19.34;100.00
13705;BME280;6924;52.122;9.952;2023-09-18T01:15:22;99868.09;;;19.33;100.00
13705;BME280;6924;52.122;9.952;2023-09-18T01:17:51;99863.22;;;19.34;100.00
13705;BME280;6924;52.122;9.952;2023-09-18T01:20:17;99853.34;;;19.31;100.00
13705;BME280;6924;52.122;9.952;2023-09-18T01:22:46;99854.56;;;19.30;100.00
13705;BME280;6924;52.122;9.952;2023-09-18T01:25:15;99838.16;;;19.27;100.00
13705;BME280;6924;52.122;9.952;2023-09-18T01:27:41;99841.03;;;19.27;100.00
13705;BME280;6924;52.122;9.952;2023-09-18T01:30:09;99830.31;;;19.24;100.00
13705;BME280;6924;52.122;9.952;2023-09-18T01:32:36;99840.53;;;19.22;100.00
13705;BME280;6924;52.122;9.952;2023-09-18T01:35:05;99839.72;;;19.21;100.00
13705;BME280;6924;52.122;9.952;2023-09-18T01:37:33;99840.91;;;19.20;100.00
13705;BME280;6924;52.122;9.952;2023-09-18T01:40:03;99839.66;;;19.17;100.00
13705;BME280;6924;52.122;9.952;2023-09-18T01:42:32;99829.44;;;19.16;100.00
13705;BME280;6924;52.122;9.952;2023-09-18T01:44:59;99830.63;;;19.15;100.00
13705;BME280;6924;52.122;9.952;2023-09-18T01:47:26;99826.13;;;19.14;100.00
13705;BME280;6924;52.122;9.952;2023-09-18T01:49:53;99826.94;;;19.15;100.00
13705;BME280;6924;52.122;9.952;2023-09-18T01:52:19;99829.38;;;19.13;100.00
13705;BME280;6924;52.122;9.952;2023-09-18T01:54:46;99821.59;;;19.13;100.00
13705;BME280;6924;52.122;9.952;2023-09-18T01:57:14;99821.56;;;19.10;100.00
13705;BME280;6924;52.122;9.952;2023-09-18T01:59:40;99824.00;;;19.08;100.00
13705;BME280;6924;52.122;9.952;2023-09-18T02:02:07;99813.72;;;19.07;100.00
13705;BME280;6924;52.122;9.952;2023-09-18T02:04:35;99823.56;;;19.06;100.00
13705;BME280;6924;52.122;9.952;2023-09-18T02:07:01;99816.53;;;18.99;100.00
13705;BME280;6924;52.122;9.952;2023-09-18T02:09:28;99815.31;;;19.01;100.00
13705;BME280;6924;52.122;9.952;2023-09-18T02:11:54;99813.22;;;18.97;100.00
13705;BME280;6924;52.122;9.952;2023-09-18T02:14:22;99814.81;;;18.95;100.00
13705;BME280;6924;52.122;9.952;2023-09-18T02:16:48;99805.78;;;18.93;100.00
13705;BME280;6924;52.122;9.952;2023-09-18T02:19:16;99804.59;;;18.94;100.00
13705;BME280;6924;52.122;9.952;2023-09-18T02:21:45;99801.66;;;18.90;100.00
13705;BME280;6924;52.122;9.952;2023-09-18T02:24:12;99800.41;;;18.88;100.00
13705;BME280;6924;52.122;9.952;2023-09-18T02:26:38;99795.06;;;18.86;100.00
13705;BME280;6924;52.122;9.952;2023-09-18T02:29:07;99795.84;;;18.83;100.00
13705;BME280;6924;52.122;9.952;2023-09-18T02:31:36;99793.75;;;18.80;100.00
13705;BME280;6924;52.122;9.952;2023-09-18T02:34:03;99793.31;;;18.78;100.00
13705;BME280;6924;52.122;9.952;2023-09-18T02:36:29;99787.59;;;18.78;100.00
13705;BME280;6924;52.122;9.952;2023-09-18T02:38:56;99783.25;;;18.61;100.00
13705;BME280;6924;52.122;9.952;2023-09-18T02:41:22;99782.81;;;18.59;100.00
13705;BME280;6924;52.122;9.952;2023-09-18T02:43:49;99773.28;;;18.51;100.00
13705;BME280;6924;52.122;9.952;2023-09-18T02:46:15;99764.69;;;18.48;100.00
13705;BME280;6924;52.122;9.952;2023-09-18T02:48:43;99762.28;;;18.53;100.00
13705;BME280;6924;52.122;9.952;2023-09-18T02:51:10;99768.34;;;18.48;100.00
13705;BME280;6924;52.122;9.952;2023-09-18T02:53:36;99768.44;;;18.55;100.00
13705;BME280;6924;52.122;9.952;2023-09-18T02:56:03;99759.91;;;18.59;100.00
13705;BME280;6924;52.122;9.952;2023-09-18T02:58:29;99759.94;;;18.63;100.00
13705;BME280;6924;52.122;9.952;2023-09-18T03:00:57;99756.31;;;18.66;100.00
13705;BME280;6924;52.122;9.952;2023-09-18T03:03:25;99748.53;;;18.66;100.00
13705;BME280;6924;52.122;9.952;2023-09-18T03:05:53;99740.78;;;18.67;100.00
13705;BME280;6924;52.122;9.952;2023-09-18T03:08:19;99742.44;;;18.68;100.00
13705;BME280;6924;52.122;9.952;2023-09-18T03:10:46;99734.28;;;18.70;100.00
13705;BME280;6924;52.122;9.952;2023-09-18T03:13:14;99737.13;;;18.70;100.00
13705;BME280;6924;52.122;9.952;2023-09-18T03:15:44;99729.81;;;18.72;100.00
13705;BME280;6924;52.122;9.952;2023-09-18T03:18:11;99727.31;;;18.71;100.00
13705;BME280;6924;52.122;9.952;2023-09-18T03:20:37;99732.59;;;18.65;100.00
13705;BME280;6924;52.122;9.952;2023-09-18T03:23:06;99734.59;;;18.65;100.00
13705;BME280;6924;52.122;9.952;2023-09-18T03:25:32;99726.84;;;18.65;100.00
13705;BME280;6924;52.122;9.952;2023-09-18T03:27:59;99723.59;;;18.67;100.00
13705;BME280;6924;52.122;9.952;2023-09-18T03:30:25;99723.59;;;18.67;100.00
13705;BME280;6924;52.122;9.952;2023-09-18T03:32:52;99709.31;;;18.70;100.00
13705;BME280;6924;52.122;9.952;2023-09-18T03:35:19;99708.53;;;18.73;100.00
13705;BME280;6924;52.122;9.952;2023-09-18T03:37:46;99701.53;;;18.71;100.00
13705;BME280;6924;52.122;9.952;2023-09-18T03:40:15;99700.72;;;18.70;100.00
13705;BME280;6924;52.122;9.952;2023-09-18T03:42:42;99685.53;;;18.66;100.00
13705;BME280;6924;52.122;9.952;2023-09-18T03:45:09;99689.50;;;18.58;100.00
13705;BME280;6924;52.122;9.952;2023-09-18T03:47:37;99690.69;;;18.53;100.00
13705;BME280;6924;52.122;9.952;2023-09-18T03:50:05;99687.44;;;18.55;100.00
13705;BME280;6924;52.122;9.952;2023-09-18T03:52:32;99676.38;;;18.53;100.00
13705;BME280;6924;52.122;9.952;2023-09-18T03:54:58;99676.81;;;18.55;100.00
13705;BME280;6924;52.122;9.952;2023-09-18T03:57:26;99674.75;;;18.56;100.00
13705;BME280;6924;52.122;9.952;2023-09-18T03:59:53;99661.31;;;18.60;100.00
13705;BME280;6924;52.122;9.952;2023-09-18T04:02:21;99661.31;;;18.60;100.00
13705;BME280;6924;52.122;9.952;2023-09-18T04:04:48;99646.06;;;18.49;100.00
13705;BME280;6924;52.122;9.952;2023-09-18T04:07:14;99651.03;;;18.55;100.00
13705;BME280;6924;52.122;9.952;2023-09-18T04:09:41;99654.63;;;18.49;100.00
13705;BME280;6924;52.122;9.952;2023-09-18T04:12:08;99645.66;;;18.50;100.00
13705;BME280;6924;52.122;9.952;2023-09-18T04:14:36;99646.53;;;18.54;100.00
13705;BME280;6924;52.122;9.952;2023-09-18T04:17:03;99629.25;;;18.47;100.00
13705;BME280;6924;52.122;9.952;2023-09-18T04:19:29;99622.75;;;18.50;100.00
13705;BME280;6924;52.122;9.952;2023-09-18T04:21:56;99632.59;;;18.53;100.00
13705;BME280;6924;52.122;9.952;2023-09-18T04:24:23;99626.88;;;18.53;100.00
13705;BME280;6924;52.122;9.952;2023-09-18T04:26:49;99611.75;;;18.52;100.00
13705;BME280;6924;52.122;9.952;2023-09-18T04:29:17;99605.84;;;18.38;100.00
13705;BME280;6924;52.122;9.952;2023-09-18T04:31:45;99612.88;;;18.44;100.00
13705;BME280;6924;52.122;9.952;2023-09-18T04:34:12;99594.47;;;18.45;100.00
13705;BME280;6924;52.122;9.952;2023-09-18T04:36:38;99587.09;;;18.44;100.00
13705;BME280;6924;52.122;9.952;2023-09-18T04:39:05;99578.47;;;18.41;100.00
13705;BME280;6924;52.122;9.952;2023-09-18T04:41:32;99578.03;;;18.38;100.00
13705;BME280;6924;52.122;9.952;2023-09-18T04:43:59;99566.06;;;18.29;100.00
13705;BME280;6924;52.122;9.952;2023-09-18T04:46:25;99560.75;;;18.28;100.00
13705;BME280;6924;52.122;9.952;2023-09-18T04:48:53;99555.38;;;18.23;100.00
13705;BME280;6924;52.122;9.952;2023-09-18T04:51:19;99558.75;;;18.32;100.00
13705;BME280;6924;52.122;9.952;2023-09-18T04:53:46;99549.34;;;18.31;100.00
13705;BME280;6924;52.122;9.952;2023-09-18T04:56:12;99544.09;;;18.37;100.00
13705;BME280;6924;52.122;9.952;2023-09-18T04:58:39;99543.28;;;18.36;100.00
13705;BME280;6924;52.122;9.952;2023-09-18T05:01:06;99542.94;;;18.45;100.00
13705;BME280;6924;52.122;9.952;2023-09-18T05:03:33;99532.34;;;18.49;100.00
13705;BME280;6924;52.122;9.952;2023-09-18T05:06:01;99529.13;;;18.54;100.00
13705;BME280;6924;52.122;9.952;2023-09-18T05:08:29;99525.34;;;18.43;100.00
13705;BME280;6924;52.122;9.952;2023-09-18T05:10:56;99523.75;;;18.49;100.00
13705;BME280;6924;52.122;9.952;2023-09-18T05:13:23;99526.28;;;18.54;100.00
13705;BME280;6924;52.122;9.952;2023-09-18T05:15:49;99527.09;;;18.58;100.00
13705;BME280;6924;52.122;9.952;2023-09-18T05:18:16;99540.69;;;18.65;100.00
13705;BME280;6924;52.122;9.952;2023-09-18T05:20:42;99541.94;;;18.68;100.00
13705;BME280;6924;52.122;9.952;2023-09-18T05:23:10;99561.63;;;18.73;100.00
13705;BME280;6924;52.122;9.952;2023-09-18T05:25:37;99548.53;;;18.72;100.00
13705;BME280;6924;52.122;9.952;2023-09-18T05:28:04;99548.16;;;18.77;100.00
13705;BME280;6924;52.122;9.952;2023-09-18T05:30:32;99528.34;;;19.02;100.00
13705;BME280;6924;52.122;9.952;2023-09-18T05:33:00;99518.28;;;19.26;100.00
13705;BME280;6924;52.122;9.952;2023-09-18T05:35:29;99512.25;;;19.46;100.00
13705;BME280;6924;52.122;9.952;2023-09-18T05:37:56;99499.25;;;19.66;100.00
13705;BME280;6924;52.122;9.952;2023-09-18T05:40:26;99505.09;;;19.80;100.00
13705;BME280;6924;52.122;9.952;2023-09-18T05:42:54;99506.75;;;19.89;100.00
13705;BME280;6924;52.122;9.952;2023-09-18T05:45:21;99508.00;;;19.95;100.00
13705;BME280;6924;52.122;9.952;2023-09-18T05:47:48;99499.44;;;20.09;100.00
13705;BME280;6924;52.122;9.952;2023-09-18T05:50:15;99504.81;;;20.18;100.00
13705;BME280;6924;52.122;9.952;2023-09-18T05:52:42;99496.59;;;20.23;100.00
13705;BME280;6924;52.122;9.952;2023-09-18T05:55:09;99493.34;;;20.29;100.00
13705;BME280;6924;52.122;9.952;2023-09-18T05:57:37;99495.00;;;20.33;100.00
13705;BME280;6924;52.122;9.952;2023-09-18T06:00:04;99504.44;;;20.34;98.87
13705;BME280;6924;52.122;9.952;2023-09-18T06:02:31;99499.13;;;20.39;99.34
13705;BME280;6924;52.122;9.952;2023-09-18T06:04:59;99491.31;;;20.40;98.28
13705;BME280;6924;52.122;9.952;2023-09-18T06:07:26;99496.66;;;20.45;97.99
13705;BME280;6924;52.122;9.952;2023-09-18T06:09:53;99481.47;;;20.48;98.36
13705;BME280;6924;52.122;9.952;2023-09-18T06:12:19;99474.09;;;20.54;97.98
13705;BME280;6924;52.122;9.952;2023-09-18T06:14:48;99458.50;;;20.55;97.56
13705;BME280;6924;52.122;9.952;2023-09-18T06:17:15;99435.53;;;20.59;96.62
13705;BME280;6924;52.122;9.952;2023-09-18T06:19:42;99433.91;;;20.58;97.13
13705;BME280;6924;52.122;9.952;2023-09-18T06:22:08;99437.16;;;20.56;97.85
13705;BME280;6924;52.122;9.952;2023-09-18T06:24:35;99423.22;;;20.55;97.58
13705;BME280;6924;52.122;9.952;2023-09-18T06:27:02;99417.06;;;20.53;98.55
13705;BME280;6924;52.122;9.952;2023-09-18T06:29:29;99422.78;;;20.56;96.60
13705;BME280;6924;52.122;9.952;2023-09-18T06:31:57;99415.88;;;20.57;96.70
13705;BME280;6924;52.122;9.952;2023-09-18T06:34:24;99418.72;;;20.64;96.24
13705;BME280;6924;52.122;9.952;2023-09-18T06:36:51;99423.63;;;20.68;97.50
13705;BME280;6924;52.122;9.952;2023-09-18T06:39:17;99419.13;;;20.70;96.25
13705;BME280;6924;52.122;9.952;2023-09-18T06:41:45;99412.97;;;20.68;96.81
13705;BME280;6924;52.122;9.952;2023-09-18T06:44:11;99408.88;;;20.69;95.75
13705;BME280;6924;52.122;9.952;2023-09-18T06:46:38;99416.25;;;20.74;95.56
13705;BME280;6924;52.122;9.952;2023-09-18T06:49:07;99422.41;;;20.79;95.34
13705;BME280;6924;52.122;9.952;2023-09-18T06:51:33;99431.44;;;20.89;96.08
13705;BME280;6924;52.122;9.952;2023-09-18T06:54:00;99424.44;;;20.90;95.70
13705;BME280;6924;52.122;9.952;2023-09-18T06:56:28;99412.13;;;20.89;95.86
13705;BME280;6924;52.122;9.952;2023-09-18T06:58:54;99415.81;;;20.97;95.04
13705;BME280;6924;52.122;9.952;2023-09-18T07:01:21;99406.78;;;20.91;93.98
13705;BME280;6924;52.122;9.952;2023-09-18T07:03:49;99412.50;;;20.98;93.35
13705;BME280;6924;52.122;9.952;2023-09-18T07:06:17;99425.66;;;20.96;93.60
13705;BME280;6924;52.122;9.952;2023-09-18T07:08:45;99430.97;;;21.01;93.94
13705;BME280;6924;52.122;9.952;2023-09-18T07:11:12;99438.38;;;20.98;92.94
13705;BME280;6924;52.122;9.952;2023-09-18T07:13:39;99435.50;;;21.02;92.26
13705;BME280;6924;52.122;9.952;2023-09-18T07:16:06;99428.91;;;21.05;92.69
13705;BME280;6924;52.122;9.952;2023-09-18T07:18:32;99437.97;;;21.03;92.02
13705;BME280;6924;52.122;9.952;2023-09-18T07:20:59;99447.41;;;21.00;92.06
13705;BME280;6924;52.122;9.952;2023-09-18T07:23:27;99440.84;;;21.03;91.20
13705;BME280;6924;52.122;9.952;2023-09-18T07:25:54;99450.28;;;21.11;91.61
13705;BME280;6924;52.122;9.952;2023-09-18T07:28:20;99442.47;;;21.12;91.76
13705;BME280;6924;52.122;9.952;2023-09-18T07:30:47;99457.69;;;21.12;91.40
13705;BME280;6924;52.122;9.952;2023-09-18T07:33:14;99453.97;;;21.19;91.19
13705;BME280;6924;52.122;9.952;2023-09-18T07:35:45;99454.34;;;21.24;91.11
13705;BME280;6924;52.122;9.952;2023-09-18T07:38:12;99435.03;;;21.25;91.09
13705;BME280;6924;52.122;9.952;2023-09-18T07:40:40;99444.91;;;21.28;91.59
13705;BME280;6924;52.122;9.952;2023-09-18T07:43:07;99456.38;;;21.35;90.56
13705;BME280;6924;52.122;9.952;2023-09-18T07:45:34;99446.94;;;21.34;89.81
13705;BME280;6924;52.122;9.952;2023-09-18T07:48:00;99444.44;;;21.36;89.39
13705;BME280;6924;52.122;9.952;2023-09-18T07:50:27;99450.63;;;21.35;89.67
13705;BME280;6924;52.122;9.952;2023-09-18T07:52:54;99444.84;;;21.38;88.39
13705;BME280;6924;52.122;9.952;2023-09-18T07:55:20;99450.22;;;21.43;89.03
13705;BME280;6924;52.122;9.952;2023-09-18T07:57:48;99447.75;;;21.42;89.76
13705;BME280;6924;52.122;9.952;2023-09-18T08:00:15;99440.75;;;21.50;89.93
13705;BME280;6924;52.122;9.952;2023-09-18T08:02:42;99437.44;;;21.55;89.37
13705;BME280;6924;52.122;9.952;2023-09-18T08:05:09;99445.25;;;21.55;89.55
13705;BME280;6924;52.122;9.952;2023-09-18T08:07:36;99441.13;;;21.59;89.49
13705;BME280;6924;52.122;9.952;2023-09-18T08:10:03;99444.38;;;21.69;89.68
13705;BME280;6924;52.122;9.952;2023-09-18T08:12:31;99453.00;;;21.72;89.53
13705;BME280;6924;52.122;9.952;2023-09-18T08:14:59;99469.38;;;21.86;88.39
13705;BME280;6924;52.122;9.952;2023-09-18T08:17:26;99483.34;;;21.87;88.68
13705;BME280;6924;52.122;9.952;2023-09-18T08:19:52;99487.88;;;21.85;89.86
13705;BME280;6924;52.122;9.952;2023-09-18T08:22:20;99483.75;;;21.86;88.31
13705;BME280;6924;52.122;9.952;2023-09-18T08:24:46;99486.22;;;21.87;88.85
13705;BME280;6924;52.122;9.952;2023-09-18T08:27:14;99484.97;;;21.92;88.73
13705;BME280;6924;52.122;9.952;2023-09-18T08:29:42;99486.63;;;21.90;88.21
13705;BME280;6924;52.122;9.952;2023-09-18T08:32:09;99479.22;;;21.92;89.44
13705;BME280;6924;52.122;9.952;2023-09-18T08:34:36;99478.78;;;21.94;88.92
13705;BME280;6924;52.122;9.952;2023-09-18T08:37:03;99475.44;;;22.02;89.17
13705;BME280;6924;52.122;9.952;2023-09-18T08:39:30;99480.38;;;22.05;89.15
13705;BME280;6924;52.122;9.952;2023-09-18T08:41:58;99484.47;;;22.08;87.78
13705;BME280;6924;52.122;9.952;2023-09-18T08:44:26;99480.75;;;22.11;87.83
13705;BME280;6924;52.122;9.952;2023-09-18T08:46:53;99475.38;;;22.17;87.80
13705;BME280;6924;52.122;9.952;2023-09-18T08:49:23;99473.72;;;22.23;86.80
13705;BME280;6924;52.122;9.952;2023-09-18T08:51:50;99469.56;;;22.27;86.64
13705;BME280;6924;52.122;9.952;2023-09-18T08:54:17;99463.78;;;22.31;86.28
13705;BME280;6924;52.122;9.952;2023-09-18T08:56:44;99463.00;;;22.27;86.97
13705;BME280;6924;52.122;9.952;2023-09-18T08:59:11;99460.47;;;22.33;87.22
13705;BME280;6924;52.122;9.952;2023-09-18T09:01:38;99454.72;;;22.33;87.80
13705;BME280;6924;52.122;9.952;2023-09-18T09:04:05;99437.44;;;22.33;87.90
13705;BME280;6924;52.122;9.952;2023-09-18T09:06:33;99447.69;;;22.37;86.86
13705;BME280;6924;52.122;9.952;2023-09-18T09:09:01;99448.47;;;22.45;85.96
13705;BME280;6924;52.122;9.952;2023-09-18T09:11:28;99459.59;;;22.43;86.26
13705;BME280;6924;52.122;9.952;2023-09-18T09:14:09;99454.63;;;22.47;86.32
13705;BME280;6924;52.122;9.952;2023-09-18T09:16:38;99458.31;;;22.51;85.70
13705;BME280;6924;52.122;9.952;2023-09-18T09:19:05;99463.69;;;22.45;85.86
13705;BME280;6924;52.122;9.952;2023-09-18T09:21:41;99471.13;;;22.39;85.44
13705;BME280;6924;52.122;9.952;2023-09-18T09:24:09;99464.56;;;22.39;86.14
13705;BME280;6924;52.122;9.952;2023-09-18T09:26:39;99466.25;;;22.33;85.93
13705;BME280;6924;52.122;9.952;2023-09-18T09:29:15;99464.56;;;22.35;86.24
13705;BME280;6924;52.122;9.952;2023-09-18T09:31:44;99459.28;;;22.30;86.82
13705;BME280;6924;52.122;9.952;2023-09-18T09:34:11;99468.66;;;22.38;86.14
13705;BME280;6924;52.122;9.952;2023-09-18T09:36:52;99469.53;;;22.35;86.46
13705;BME280;6924;52.122;9.952;2023-09-18T09:39:19;99467.50;;;22.32;87.38
13705;BME280;6924;52.122;9.952;2023-09-18T09:41:50;99485.19;;;22.30;87.10
13705;BME280;6924;52.122;9.952;2023-09-18T09:44:17;99485.59;;;22.36;86.36
13705;BME280;6924;52.122;9.952;2023-09-18T09:46:46;99481.84;;;22.35;85.88
13705;BME280;6924;52.122;9.952;2023-09-18T09:49:13;99470.78;;;22.34;85.86
13705;BME280;6924;52.122;9.952;2023-09-18T09:51:41;99474.06;;;22.36;86.35
13705;BME280;6924;52.122;9.952;2023-09-18T09:54:10;99470.78;;;22.34;86.18
13705;BME280;6924;52.122;9.952;2023-09-18T09:56:41;99490.94;;;22.30;86.28
13705;BME280;6924;52.122;9.952;2023-09-18T09:59:08;99468.31;;;22.28;86.16
13705;BME280;6924;52.122;9.952;2023-09-18T10:01:37;99476.56;;;22.26;85.55
13705;BME280;6924;52.122;9.952;2023-09-18T10:04:08;99470.78;;;22.34;85.30
13705;BME280;6924;52.122;9.952;2023-09-18T10:06:36;99468.66;;;22.38;85.79
13705;BME280;6924;52.122;9.952;2023-09-18T10:09:03;99485.94;;;22.41;86.04
13705;BME280;6924;52.122;9.952;2023-09-18T10:11:33;99468.66;;;22.41;85.45
13705;BME280;6924;52.122;9.952;2023-09-18T10:14:06;99480.16;;;22.45;85.14
13705;BME280;6924;52.122;9.952;2023-09-18T10:16:36;99483.06;;;22.41;84.42
13705;BME280;6924;52.122;9.952;2023-09-18T10:19:10;99485.53;;;22.43;84.30
13705;BME280;6924;52.122;9.952;2023-09-18T10:21:41;99464.56;;;22.39;83.73
13705;BME280;6924;52.122;9.952;2023-09-18T10:24:17;99467.38;;;22.46;84.66
13705;BME280;6924;52.122;9.952;2023-09-18T10:26:55;99468.59;;;22.52;84.90
13705;BME280;6924;52.122;9.952;2023-09-18T10:29:23;99478.03;;;22.56;84.92
13705;BME280;6924;52.122;9.952;2023-09-18T10:31:50;99486.59;;;22.63;83.84
13705;BME280;6924;52.122;9.952;2023-09-18T10:34:17;99491.97;;;22.61;83.25
13705;BME280;6924;52.122;9.952;2023-09-18T10:36:46;99489.94;;;22.58;83.52
13705;BME280;6924;52.122;9.952;2023-09-18T10:39:13;99492.03;;;22.58;83.43
13705;BME280;6924;52.122;9.952;2023-09-18T10:41:47;99477.59;;;22.58;82.88
13705;BME280;6924;52.122;9.952;2023-09-18T10:44:13;99487.50;;;22.53;83.67
13705;BME280;6924;52.122;9.952;2023-09-18T10:46:40;99500.28;;;22.52;83.37
13705;BME280;6924;52.122;9.952;2023-09-18T10:49:06;99507.28;;;22.51;84.10
13705;BME280;6924;52.122;9.952;2023-09-18T10:51:33;99516.28;;;22.57;84.02
13705;BME280;6924;52.122;9.952;2023-09-18T10:54:00;99516.28;;;22.60;84.00
13705;BME280;6924;52.122;9.952;2023-09-18T10:56:28;99516.22;;;22.67;84.68
13705;BME280;6924;52.122;9.952;2023-09-18T10:59:00;99514.53;;;22.74;82.94
13705;BME280;6924;52.122;9.952;2023-09-18T11:01:29;99519.50;;;22.73;83.50
13705;BME280;6924;52.122;9.952;2023-09-18T11:03:57;99527.25;;;22.80;81.76
13705;BME280;6924;52.122;9.952;2023-09-18T11:06:26;99556.84;;;22.84;82.56
13705;BME280;6924;52.122;9.952;2023-09-18T11:08:59;99551.56;;;22.79;82.25
13705;BME280;6924;52.122;9.952;2023-09-18T11:11:29;99563.91;;;22.79;82.62
13705;BME280;6924;52.122;9.952;2023-09-18T11:14:00;99560.19;;;22.82;82.56
13705;BME280;6924;52.122;9.952;2023-09-18T11:16:36;99544.09;;;22.85;82.78
13705;BME280;6924;52.122;9.952;2023-09-18T11:19:11;99546.09;;;22.92;83.45
13705;BME280;6924;52.122;9.952;2023-09-18T11:21:39;99540.69;;;23.04;84.17
13705;BME280;6924;52.122;9.952;2023-09-18T11:24:07;99542.59;;;23.18;83.92
13705;BME280;6924;52.122;9.952;2023-09-18T11:26:37;99535.88;;;23.32;84.63
13705;BME280;6924;52.122;9.952;2023-09-18T11:29:06;99533.69;;;23.43;84.18
13705;BME280;6924;52.122;9.952;2023-09-18T11:31:45;99533.66;;;23.50;82.27
13705;BME280;6924;52.122;9.952;2023-09-18T11:34:20;99517.84;;;23.62;81.04
13705;BME280;6924;52.122;9.952;2023-09-18T11:36:48;99520.22;;;23.71;80.51
13705;BME280;6924;52.122;9.952;2023-09-18T11:39:33;99511.25;;;23.62;79.31
13705;BME280;6924;52.122;9.952;2023-09-18T11:42:06;99524.41;;;23.66;81.11
13705;BME280;6924;52.122;9.952;2023-09-18T11:44:35;99538.47;;;23.61;78.76
13705;BME280;6924;52.122;9.952;2023-09-18T11:47:07;99548.72;;;23.65;79.74
13705;BME280;6924;52.122;9.952;2023-09-18T11:49:38;99540.56;;;23.57;77.88
13705;BME280;6924;52.122;9.952;2023-09-18T11:52:07;99544.34;;;23.50;79.01
13705;BME280;6924;52.122;9.952;2023-09-18T11:54:34;99526.19;;;23.53;79.37
13705;BME280;6924;52.122;9.952;2023-09-18T11:57:03;99515.56;;;23.46;78.58
13705;BME280;6924;52.122;9.952;2023-09-18T11:59:37;99519.72;;;23.42;78.67
13705;BME280;6924;52.122;9.952;2023-09-18T12:02:04;99528.38;;;23.42;79.22
13705;BME280;6924;52.122;9.952;2023-09-18T12:04:33;99539.41;;;23.50;78.31
13705;BME280;6924;52.122;9.952;2023-09-18T12:07:00;99545.09;;;23.61;79.44
13705;BME280;6924;52.122;9.952;2023-09-18T12:09:28;99550.00;;;23.64;78.32
13705;BME280;6924;52.122;9.952;2023-09-18T12:11:55;99561.03;;;23.73;79.38
13705;BME280;6924;52.122;9.952;2023-09-18T12:14:22;99564.34;;;23.75;78.90
13705;BME280;6924;52.122;9.952;2023-09-18T12:16:50;99570.41;;;23.84;79.77
13705;BME280;6924;52.122;9.952;2023-09-18T12:19:18;99564.63;;;23.88;78.99
13705;BME280;6924;52.122;9.952;2023-09-18T12:21:46;99565.88;;;23.83;78.65
13705;BME280;6924;52.122;9.952;2023-09-18T12:24:14;99559.69;;;23.85;75.94
13705;BME280;6924;52.122;9.952;2023-09-18T12:26:41;99547.34;;;23.81;75.70
13705;BME280;6924;52.122;9.952;2023-09-18T12:29:07;99541.63;;;23.77;75.82
13705;BME280;6924;52.122;9.952;2023-09-18T12:31:36;99523.47;;;23.77;76.69
13705;BME280;6924;52.122;9.952;2023-09-18T12:34:04;99528.84;;;23.75;76.98
13705;BME280;6924;52.122;9.952;2023-09-18T12:36:32;99541.31;;;23.68;76.39
13705;BME280;6924;52.122;9.952;2023-09-18T12:38:59;99537.53;;;23.71;76.97
13705;BME280;6924;52.122;9.952;2023-09-18T12:41:26;99544.03;;;23.82;78.54
13705;BME280;6924;52.122;9.952;2023-09-18T12:43:53;99533.78;;;23.78;77.45
13705;BME280;6924;52.122;9.952;2023-09-18T12:46:20;99546.19;;;23.71;77.13
13705;BME280;6924;52.122;9.952;2023-09-18T12:48:47;99536.28;;;23.76;75.85
13705;BME280;6924;52.122;9.952;2023-09-18T12:51:15;99551.94;;;23.75;75.10
13705;BME280;6924;52.122;9.952;2023-09-18T12:53:47;99558.16;;;23.73;75.01
13705;BME280;6924;52.122;9.952;2023-09-18T12:56:14;99557.34;;;23.69;74.18
13705;BME280;6924;52.122;9.952;2023-09-18T12:58:41;99538.78;;;23.70;75.17
13705;BME280;6924;52.122;9.952;2023-09-18T13:01:09;99550.41;;;23.63;74.53
13705;BME280;6924;52.122;9.952;2023-09-18T13:03:41;99533.47;;;23.65;75.18
13705;BME280;6924;52.122;9.952;2023-09-18T13:06:10;99536.72;;;23.70;74.15
13705;BME280;6924;52.122;9.952;2023-09-18T13:08:38;99531.38;;;23.69;74.84